SeattleWeather.com

KSEA - Seattle/Metro, Washington, USA
Distance from station: SSW 24mi, 39km
Updated: Mon, 23-Jul-2018 3:53am PDT
Clear
Clear
 Wind from NE
Wind: NE 3 mph , 6 km/h
Temperature: 68°F , 20°C
Dew Point: 52°F , 11°C
Humidity: 56%
Barometer: 30.11 inHg , 1019.6 hPa
Clouds: Clear
Visibility: 10 miles , 16 km
2018/07/23 10:53 KSEA 231053Z 05003KT 10SM CLR 20/11 A3011 RMK AO2 SLP200 T02000106
KBFI - Seattle/Boeing, Washington, USA
Distance from station: SSW 18mi, 29km
Updated: Mon, 23-Jul-2018 3:53am PDT
Clear
Clear
 Wind from varies
Wind: varies 5 mph , 7 km/h
Temperature: 64°F , 18°C
Dew Point: 54°F , 12°C
Humidity: 68%
Barometer: 30.11 inHg , 1019.6 hPa
Clouds: Clear
Visibility: 10 miles , 16 km
2018/07/23 10:53 KBFI 231053Z VRB04KT 10SM CLR 18/12 A3011 RMK AO2 SLP196 T01830117
NWS Forecast for 3 Miles NNW Boulevard Park, WA
National Weather Service Forecast for: 3 Miles NNW Boulevard Park, WA
Issued by: National Weather Service Seattle/Tacoma, WA
Updated: Mon, 23-Jul-2018 3:03am PDT
 
  Monday

Monday: Sunny
Sunny
Tuesday

Tuesday: Sunny
Sunny
Wednesday

Wednesday: Sunny
Sunny
Thursday

Thursday: Sunny
Sunny
Friday

Friday: Sunny
Sunny
Saturday

Saturday: Sunny
Sunny
Sunday

Sunday: Sunny
Sunny
  Hi 89 °F Hi 87 °F Hi 87 °F Hi 86 °F Hi 87 °F Hi 90 °F Hi 91 °F
 
Overnight

Overnight: Clear
Clear
Monday
Night
Monday Night: Clear
Clear
Tuesday
Night
Tuesday Night: Mostly Clear
Mostly Clear
Wednesday
Night
Wednesday Night: Mostly Clear
Mostly Clear
Thursday
Night
Thursday Night: Mostly Clear
Mostly Clear
Friday
Night
Friday Night: Mostly Clear
Mostly Clear
Saturday
Night
Saturday Night: Mostly Clear
Mostly Clear
 
Lo 60 °F Lo 63 °F Lo 63 °F Lo 64 °F Lo 64 °F Lo 63 °F Lo 65 °F  

 

Overnight
 
Clear, with a low around 60. Northeast wind 5 to 8 mph.
Monday
 
Sunny, with a high near 89. North northwest wind 5 to 12 mph.
Monday Night
 
Clear, with a low around 63. Northeast wind 5 to 15 mph.
Tuesday
 
Sunny, with a high near 87. North northeast wind 3 to 13 mph.
Tuesday Night
 
Mostly clear, with a low around 63. North northeast wind 5 to 14 mph.
Wednesday
 
Sunny, with a high near 87.
Wednesday Night
 
Mostly clear, with a low around 64.
Thursday
 
Sunny, with a high near 86.
Thursday Night
 
Mostly clear, with a low around 64.
Friday
 
Sunny, with a high near 87.
Friday Night
 
Mostly clear, with a low around 63.
Saturday
 
Sunny, with a high near 90.
Saturday Night
 
Mostly clear, with a low around 65.
Sunday
 
Sunny, with a high near 91.

 

Forecast from NOAA-NWS for 3 Miles NNW Boulevard Park, WA.